Time;durP1;ratioP1;P1;durP2;ratioP2;P2;SDS_P1;SDS_P2;PMS_P1;PMS_P2;Temp;Humidity;BMP_temperature;BMP_pressure;BME280_temperature;BME280_humidity;BME280_pressure;Samples;Min_cycle;Max_cycle;Signal;HPM_P1;HPM_P2
2021/08/06 00:01:10;;;;;;;;;2.00;2.00;;;;;21.97;58.53;99799.94;5048100;27;45739;-59
2021/08/06 00:03:36;;;;;;;;;3.67;3.67;;;;;21.97;59.17;99804.47;5027847;28;45736;-58
2021/08/06 00:06:02;;;;;;;;;2.00;2.00;;;;;21.97;58.87;99797.22;5059115;28;48166;-58
2021/08/06 00:08:28;;;;;;;;;4.00;3.67;;;;;21.98;58.79;99798.13;5059061;28;46128;-57
2021/08/06 00:10:53;;;;;;;;;3.00;2.33;;;;;21.97;58.72;99797.22;5059032;28;45239;-58
2021/08/06 00:13:19;;;;;;;;;1.00;1.00;;;;;21.96;58.30;99797.38;5057907;28;45527;-59
2021/08/06 00:15:44;;;;;;;;;1.67;1.67;;;;;21.94;59.09;99807.44;5040846;28;48080;-58
2021/08/06 00:18:10;;;;;;;;;2.33;1.33;;;;;21.92;58.71;99815.69;5059046;28;45271;-59
2021/08/06 00:20:35;;;;;;;;;2.00;2.00;;;;;21.89;58.26;99802.44;5091835;27;45316;-58
2021/08/06 00:23:04;;;;;;;;;2.67;2.67;;;;;21.87;58.22;99806.25;5057730;28;45836;-58
2021/08/06 00:25:29;;;;;;;;;3.67;2.33;;;;;21.83;58.56;99804.78;5058866;28;47278;-58
2021/08/06 00:27:55;;;;;;;;;1.00;1.00;;;;;21.79;58.49;99797.91;5023968;28;45413;-58
2021/08/06 00:30:20;;;;;;;;;1.67;1.67;;;;;21.76;58.80;99817.09;5056470;28;45434;-58
2021/08/06 00:32:46;;;;;;;;;3.00;3.00;;;;;21.74;58.41;99807.25;5060982;28;45776;-58
2021/08/06 00:35:11;;;;;;;;;2.00;2.00;;;;;21.74;58.74;99803.72;5068047;27;47134;-58
2021/08/06 00:37:37;;;;;;;;;2.00;2.00;;;;;21.72;58.35;99801.13;5069783;27;45300;-58
2021/08/06 00:40:03;;;;;;;;;4.33;3.00;;;;;21.72;58.48;99800.25;5057876;28;45390;-57
2021/08/06 00:42:28;;;;;;;;;3.00;3.00;;;;;21.72;58.87;99805.66;5069413;27;45942;-58
2021/08/06 00:44:53;;;;;;;;;1.67;1.67;;;;;21.71;58.85;99818.28;5065003;28;47740;-58
2021/08/06 00:47:19;;;;;;;;;4.67;3.00;;;;;21.71;58.68;99799.41;5070244;27;45656;-58
2021/08/06 00:49:45;;;;;;;;;1.00;1.00;;;;;21.70;58.65;99797.69;5064393;28;45285;-58
2021/08/06 00:52:11;;;;;;;;;2.00;2.00;;;;;21.71;58.64;99806.63;5057141;28;45480;-58
2021/08/06 00:54:37;;;;;;;;;2.00;2.00;;;;;21.70;59.09;99805.78;5067986;28;48068;-57
2021/08/06 00:57:03;;;;;;;;;3.33;3.33;;;;;21.69;58.68;99798.66;5065689;28;45771;-57
2021/08/06 00:59:28;;;;;;;;;2.00;2.00;;;;;21.69;59.08;99803.22;5070802;28;45431;-58
2021/08/06 01:02:11;;;;;;;;;1.33;1.00;;;;;21.70;59.03;99810.31;5071694;27;45398;-58
2021/08/06 01:05:10;;;;;;;;;2.67;2.67;;;;;21.67;58.49;99805.19;5073198;27;47511;-58
2021/08/06 01:08:18;;;;;;;;;4.00;4.00;;;;;21.68;58.54;99812.28;5031812;27;45369;-58
2021/08/06 01:10:52;;;;;;;;;3.67;2.00;;;;;21.67;58.88;99811.44;5054597;28;45519;-57
2021/08/06 01:13:30;;;;;;;;;2.00;2.00;;;;;21.67;58.90;99811.44;5072657;27;45576;-57
2021/08/06 01:15:58;;;;;;;;;3.00;3.00;;;;;21.68;58.97;99809.59;5072413;28;47796;-57
2021/08/06 01:18:27;;;;;;;;;3.33;2.67;;;;;21.67;58.24;99797.09;5070289;27;45642;-57
2021/08/06 01:20:55;;;;;;;;;1.33;1.33;;;;;21.64;58.54;99800.03;5086392;27;45356;-58
2021/08/06 01:23:34;;;;;;;;;1.67;1.00;;;;;21.63;58.35;99811.84;5060818;28;45860;-58
2021/08/06 01:26:25;;;;;;;;;2.00;2.00;;;;;21.60;58.74;99801.28;5061496;28;45698;-58
2021/08/06 01:28:51;;;;;;;;;2.33;1.67;;;;;21.58;58.36;99809.47;5061068;28;45342;-59
2021/08/06 01:31:26;;;;;;;;;3.00;1.00;;;;;21.56;58.38;99811.47;5054769;27;45721;-59
2021/08/06 01:33:51;;;;;;;;;2.67;1.67;;;;;21.57;58.23;99815.00;5073979;27;45342;-59
2021/08/06 01:36:17;;;;;;;;;1.00;1.00;;;;;21.56;58.53;99813.31;5048672;28;48457;-58
2021/08/06 01:38:42;;;;;;;;;2.33;2.33;;;;;21.55;58.21;99817.00;5060793;28;45702;-58
2021/08/06 01:41:20;;;;;;;;;1.67;1.33;;;;;21.55;58.22;99812.44;5084744;27;45554;-58
2021/08/06 01:44:21;;;;;;;;;3.33;3.33;;;;;21.54;58.56;99807.19;5041427;28;46516;-58
2021/08/06 01:47:10;;;;;;;;;2.33;2.33;;;;;21.53;58.84;99806.31;5053728;28;47973;-58
2021/08/06 01:49:47;;;;;;;;;2.67;2.33;;;;;21.53;58.74;99797.38;5060996;28;45894;-59
2021/08/06 01:52:14;;;;;;;;;4.00;2.00;;;;;21.53;58.34;99794.66;5059686;28;45520;-58
2021/08/06 01:54:42;;;;;;;;;1.67;1.67;;;;;21.52;58.87;99798.34;5061090;28;45550;-59
2021/08/06 01:57:09;;;;;;;;;1.33;1.33;;;;;21.50;58.45;99784.97;5060686;28;47803;-59
2021/08/06 01:59:35;;;;;;;;;1.67;1.67;;;;;21.49;58.69;99810.25;5060851;28;45899;-57
2021/08/06 02:02:02;;;;;;;;;2.00;1.00;;;;;21.47;58.98;99806.84;5050679;28;45508;-58
2021/08/06 02:04:28;;;;;;;;;2.67;2.00;;;;;21.43;58.37;99798.09;5061373;28;45320;-57
2021/08/06 02:06:54;;;;;;;;;2.67;2.67;;;;;21.44;59.11;99799.81;5059916;28;47108;-59
2021/08/06 02:09:21;;;;;;;;;2.00;2.00;;;;;21.44;59.10;99793.56;5060937;28;45577;-58
2021/08/06 02:11:47;;;;;;;;;2.33;2.33;;;;;21.43;59.19;99799.94;5059541;28;45329;-58
2021/08/06 02:14:15;;;;;;;;;2.00;2.00;;;;;21.40;58.58;99802.91;5056539;28;45409;-54
2021/08/06 02:16:42;;;;;;;;;2.00;2.00;;;;;21.40;58.89;99801.06;5047246;28;46281;-58
2021/08/06 02:19:19;;;;;;;;;2.00;2.00;;;;;21.41;58.58;99796.50;5059837;28;45283;-57
2021/08/06 02:21:48;;;;;;;;;1.67;1.67;;;;;21.38;58.96;99800.31;5060234;28;45350;-57
2021/08/06 02:24:14;;;;;;;;;2.00;2.00;;;;;21.39;58.76;99802.03;5060892;28;45787;-57
2021/08/06 02:26:44;;;;;;;;;3.67;2.00;;;;;21.36;58.49;99807.69;5093251;27;45642;-57
2021/08/06 02:29:11;;;;;;;;;2.00;2.00;;;;;21.36;58.62;99813.09;5059453;28;45413;-57
2021/08/06 02:31:39;;;;;;;;;1.33;1.33;;;;;21.36;58.48;99817.63;5050200;28;45393;-57
2021/08/06 02:34:05;;;;;;;;;2.00;1.33;;;;;21.35;58.69;99815.91;5093038;27;45745;-57
2021/08/06 02:36:30;;;;;;;;;3.00;2.00;;;;;21.33;58.87;99818.72;5060198;28;47474;-57
2021/08/06 02:38:59;;;;;;;;;2.00;2.00;;;;;21.31;58.77;99815.28;5060169;27;45328;-57
2021/08/06 02:41:26;;;;;;;;;2.00;2.00;;;;;21.31;58.42;99825.22;5056746;28;45448;-57
2021/08/06 02:43:51;;;;;;;;;2.00;2.00;;;;;21.31;58.99;99828.78;5060338;28;45327;-57
2021/08/06 02:46:17;;;;;;;;;4.00;2.67;;;;;21.29;58.94;99825.34;5059877;28;48132;-57
2021/08/06 02:48:43;;;;;;;;;2.00;1.00;;;;;21.30;58.92;99827.06;5080762;27;46753;-57
2021/08/06 02:51:08;;;;;;;;;2.33;2.00;;;;;21.28;58.53;99833.56;5059855;27;45859;-57
2021/08/06 02:53:34;;;;;;;;;1.67;1.67;;;;;21.27;58.49;99835.41;5058692;28;45469;-58
2021/08/06 02:55:59;;;;;;;;;1.00;1.00;;;;;21.28;58.87;99833.56;5060212;28;45742;-57
2021/08/06 02:58:25;;;;;;;;;2.00;1.00;;;;;21.26;58.36;99824.75;5058932;28;45962;-57
2021/08/06 03:00:50;;;;;;;;;2.00;2.00;;;;;21.24;58.68;99830.25;5058017;28;45285;-57
2021/08/06 03:03:16;;;;;;;;;2.00;2.00;;;;;21.24;59.03;99835.63;5060345;28;45415;-57
2021/08/06 03:05:42;;;;;;;;;1.00;0.33;;;;;21.23;58.19;99836.63;5058479;28;46879;-57
2021/08/06 03:08:07;;;;;;;;;1.67;1.67;;;;;21.21;58.38;99830.47;5059421;27;45992;-55
2021/08/06 03:10:34;;;;;;;;;0.00;0.00;;;;;21.19;58.61;99839.66;5056657;28;45626;-56
2021/08/06 03:13:00;;;;;;;;;2.00;1.00;;;;;21.16;58.19;99838.06;5040222;28;45318;-57
2021/08/06 03:15:25;;;;;;;;;1.00;1.00;;;;;21.13;58.48;99843.72;5054735;28;46878;-55
2021/08/06 03:17:51;;;;;;;;;1.33;1.33;;;;;21.11;58.34;99843.00;5047526;28;45938;-56
2021/08/06 03:20:21;;;;;;;;;1.00;1.00;;;;;21.09;58.11;99848.50;5078840;27;45599;-57
2021/08/06 03:22:46;;;;;;;;;1.00;1.00;;;;;21.07;58.03;99844.19;5059717;28;45380;-57
2021/08/06 03:25:12;;;;;;;;;3.00;2.00;;;;;21.06;57.98;99839.78;5059618;28;47195;-57
2021/08/06 03:27:38;;;;;;;;;1.00;1.00;;;;;21.07;57.81;99849.59;5059885;28;45239;-57
2021/08/06 03:30:09;;;;;;;;;1.67;1.00;;;;;21.05;57.77;99849.72;5060819;28;45483;-57
2021/08/06 03:32:34;;;;;;;;;0.33;0.33;;;;;21.05;57.75;99854.25;5063361;28;45461;-57
2021/08/06 03:35:00;;;;;;;;;1.33;1.00;;;;;21.05;58.13;99851.56;5067094;27;47219;-57
2021/08/06 03:37:26;;;;;;;;;1.33;1.33;;;;;21.05;57.92;99860.50;5071317;28;45543;-57
2021/08/06 03:39:51;;;;;;;;;3.00;3.00;;;;;21.05;58.50;99851.56;5066251;28;45400;-57
2021/08/06 03:42:17;;;;;;;;;1.33;1.00;;;;;21.05;58.23;99855.09;5072703;28;45843;-56
2021/08/06 03:44:42;;;;;;;;;2.00;1.00;;;;;21.03;58.10;99853.50;5083065;27;47589;-57
2021/08/06 03:47:07;;;;;;;;;2.33;0.67;;;;;21.03;57.88;99859.78;5064591;28;45784;-56
2021/08/06 03:49:33;;;;;;;;;1.00;1.00;;;;;21.02;57.48;99865.28;5092233;27;45525;-57
2021/08/06 03:51:58;;;;;;;;;3.00;1.00;;;;;21.00;57.65;99851.06;5072522;28;45312;-57
2021/08/06 03:54:24;;;;;;;;;2.00;2.00;;;;;20.95;57.46;99847.84;5049450;28;47317;-56
2021/08/06 03:56:49;;;;;;;;;1.00;1.00;;;;;20.92;57.60;99848.09;5058526;27;45667;-54
2021/08/06 03:59:15;;;;;;;;;2.00;1.33;;;;;20.90;57.93;99863.53;5066199;28;45646;-55
2021/08/06 04:01:40;;;;;;;;;2.00;1.33;;;;;20.88;57.93;99860.13;5071893;27;45563;-56
2021/08/06 04:04:08;;;;;;;;;1.00;1.00;;;;;20.86;58.13;99865.63;5067671;28;45390;-56
2021/08/06 04:06:34;;;;;;;;;1.67;1.00;;;;;20.83;58.08;99869.44;5054525;28;45683;-54
2021/08/06 04:09:00;;;;;;;;;3.67;2.00;;;;;20.83;57.62;99863.16;5067956;27;45436;-55
2021/08/06 04:11:25;;;;;;;;;1.00;1.00;;;;;20.82;57.75;99861.44;5074031;27;45387;-58
2021/08/06 04:13:51;;;;;;;;;2.00;2.00;;;;;20.83;57.79;99868.53;5071859;28;48285;-58
2021/08/06 04:16:16;;;;;;;;;1.00;1.00;;;;;20.83;57.76;99865.84;5072593;28;45414;-57
2021/08/06 04:18:42;;;;;;;;;1.33;0.33;;;;;20.83;57.90;99879.34;5055344;27;45580;-57
2021/08/06 04:21:07;;;;;;;;;1.67;1.00;;;;;20.82;57.61;99881.16;5058956;28;45541;-57
2021/08/06 04:23:32;;;;;;;;;1.33;1.33;;;;;20.82;57.58;99880.31;5057522;28;48436;-57
2021/08/06 04:25:58;;;;;;;;;1.33;1.33;;;;;20.82;58.11;99873.06;5059061;28;45238;-58
2021/08/06 04:28:23;;;;;;;;;1.00;1.00;;;;;20.82;57.57;99881.16;5057104;28;45441;-58
2021/08/06 04:30:49;;;;;;;;;1.00;0.00;;;;;20.81;57.81;99879.44;5089400;27;45764;-58
2021/08/06 04:33:15;;;;;;;;;0.00;0.00;;;;;20.82;57.76;99883.88;5054402;28;47931;-58
2021/08/06 04:35:41;;;;;;;;;1.00;1.00;;;;;20.81;57.39;99876.75;5056474;28;45273;-58
2021/08/06 04:38:06;;;;;;;;;1.67;1.00;;;;;20.81;57.67;99892.06;5067713;28;45362;-58
2021/08/06 04:40:31;;;;;;;;;1.67;1.67;;;;;20.80;57.73;99895.75;5077893;27;45700;-58
2021/08/06 04:42:57;;;;;;;;;2.00;1.00;;;;;20.79;57.75;99899.44;5036833;28;46988;-58
2021/08/06 04:45:23;;;;;;;;;1.00;1.00;;;;;20.78;57.69;99897.72;5038111;28;45345;-58
2021/08/06 04:47:50;;;;;;;;;1.00;1.00;;;;;20.77;57.36;99904.94;5051939;28;45542;-57
2021/08/06 04:50:18;;;;;;;;;1.00;1.00;;;;;20.77;57.66;99912.19;5058822;28;45344;-58
2021/08/06 04:52:44;;;;;;;;;2.00;0.00;;;;;20.76;57.06;99907.75;5057938;28;47444;-58
2021/08/06 04:55:10;;;;;;;;;1.00;1.00;;;;;20.75;57.58;99914.13;5058346;28;45420;-58
2021/08/06 04:57:36;;;;;;;;;1.33;1.00;;;;;20.76;56.91;99915.84;5062595;27;45416;-57
2021/08/06 05:00:05;;;;;;;;;2.00;2.00;;;;;20.74;57.03;99920.50;5059992;27;45498;-58
2021/08/06 05:02:30;;;;;;;;;0.67;0.67;;;;;20.73;57.04;99913.41;5044998;28;48082;-58
2021/08/06 05:04:56;;;;;;;;;1.00;1.00;;;;;20.70;57.00;99919.88;5056601;28;46081;-58
2021/08/06 05:07:21;;;;;;;;;2.00;1.00;;;;;20.70;57.03;99933.34;5056675;28;45389;-58
2021/08/06 05:09:47;;;;;;;;;1.00;1.00;;;;;20.69;57.63;99926.22;5054197;28;45376;-58
2021/08/06 05:12:13;;;;;;;;;1.00;1.00;;;;;20.71;57.01;99926.13;5055240;28;46370;-57
2021/08/06 05:14:40;;;;;;;;;1.00;1.00;;;;;20.70;56.72;99925.25;5042865;28;45596;-59
2021/08/06 05:17:07;;;;;;;;;1.33;1.33;;;;;20.71;57.40;99929.69;5073461;27;45379;-58
2021/08/06 05:19:32;;;;;;;;;0.67;0.67;;;;;20.70;57.16;99933.34;5046518;28;45584;-58
2021/08/06 05:21:58;;;;;;;;;1.00;1.00;;;;;20.70;56.95;99933.34;5090587;27;47298;-58
2021/08/06 05:24:23;;;;;;;;;0.00;0.00;;;;;20.71;56.77;99927.00;5073525;28;45399;-58
2021/08/06 05:26:49;;;;;;;;;1.00;1.00;;;;;20.74;56.89;99924.06;5053776;28;45408;-58
2021/08/06 05:29:14;;;;;;;;;1.00;1.00;;;;;20.77;57.02;99931.06;5051313;28;45303;-57
2021/08/06 05:31:40;;;;;;;;;0.67;0.33;;;;;20.80;57.15;99928.13;5082536;27;47315;-58
2021/08/06 05:34:05;;;;;;;;;1.00;1.00;;;;;20.81;56.88;99924.44;5078861;27;45482;-58
2021/08/06 05:36:31;;;;;;;;;1.00;1.00;;;;;20.82;56.37;99926.16;5056971;28;45396;-58
2021/08/06 05:38:56;;;;;;;;;0.33;0.33;;;;;20.84;56.41;99935.00;5057897;28;45409;-58
2021/08/06 05:41:22;;;;;;;;;0.00;0.00;;;;;20.85;56.73;99929.50;5059110;28;45590;-58
2021/08/06 05:43:47;;;;;;;;;0.00;0.00;;;;;20.89;56.84;99932.81;5058499;28;45792;-58
2021/08/06 05:46:13;;;;;;;;;2.00;1.00;;;;;20.91;56.54;99936.25;5056233;28;45412;-58
2021/08/06 05:48:38;;;;;;;;;1.00;1.00;;;;;20.93;55.94;99919.94;5057291;28;45653;-58
2021/08/06 05:51:04;;;;;;;;;0.33;0.33;;;;;20.94;56.15;99924.34;5080612;27;46296;-58
2021/08/06 05:53:29;;;;;;;;;0.67;0.67;;;;;20.94;56.36;99922.50;5056094;28;45857;-58
2021/08/06 05:55:55;;;;;;;;;1.67;1.00;;;;;20.96;56.00;99925.97;5058050;28;45426;-58
2021/08/06 05:58:20;;;;;;;;;1.67;1.67;;;;;20.99;55.96;99932.97;5060821;28;45374;-58
2021/08/06 06:00:47;;;;;;;;;0.67;0.67;;;;;20.98;55.99;99926.72;5091652;27;47055;-58
2021/08/06 06:03:12;;;;;;;;;1.00;1.00;;;;;20.98;56.01;99942.91;5065174;28;45649;-58
2021/08/06 06:05:37;;;;;;;;;1.00;1.00;;;;;21.00;56.06;99932.00;5060822;28;45654;-58
2021/08/06 06:08:03;;;;;;;;;1.00;1.00;;;;;21.03;56.56;99934.44;5060277;28;45330;-58
2021/08/06 06:10:29;;;;;;;;;0.00;0.00;;;;;21.06;56.31;99931.50;5059039;28;48181;-58
2021/08/06 06:12:55;;;;;;;;;3.33;0.00;;;;;21.08;56.15;99934.94;5058780;28;45345;-59
2021/08/06 06:15:21;;;;;;;;;1.00;1.00;;;;;21.11;56.01;99934.72;5060043;28;45396;-59
2021/08/06 06:17:48;;;;;;;;;0.33;0.33;;;;;21.15;56.11;99930.78;5056301;28;45686;-58
2021/08/06 06:20:14;;;;;;;;;2.00;1.00;;;;;21.20;55.97;99930.41;5081037;27;48359;-58
2021/08/06 06:22:40;;;;;;;;;1.50;1.50;;;;;21.22;56.03;99934.75;5053743;28;45464;-59
2021/08/06 06:25:08;;;;;;;;;1.00;1.00;;;;;21.26;56.57;99946.19;5043512;28;45327;-58
2021/08/06 06:27:33;;;;;;;;;1.00;1.00;;;;;21.28;55.83;99947.78;5059496;28;45709;-59
2021/08/06 06:29:59;;;;;;;;;1.00;0.00;;;;;21.29;55.91;99948.63;5047079;28;47130;-59
2021/08/06 06:32:24;;;;;;;;;2.67;0.67;;;;;21.30;56.22;99944.94;5059082;28;45351;-58
2021/08/06 06:34:49;;;;;;;;;0.00;0.00;;;;;21.32;55.95;99945.69;5055628;28;45429;-58
2021/08/06 06:37:15;;;;;;;;;0.00;0.00;;;;;21.35;56.34;99940.94;5050276;28;45425;-58
2021/08/06 06:39:42;;;;;;;;;1.33;1.00;;;;;21.36;55.89;99947.19;5057442;28;47581;-58
2021/08/06 06:42:08;;;;;;;;;0.00;0.00;;;;;21.36;55.48;99945.34;5059336;28;45368;-58
2021/08/06 06:44:34;;;;;;;;;1.00;1.00;;;;;21.36;55.49;99950.75;5075493;27;45322;-58
2021/08/06 06:46:59;;;;;;;;;1.00;1.00;;;;;21.39;55.40;99955.03;5050588;28;45632;-58
2021/08/06 06:49:25;;;;;;;;;1.00;1.00;;;;;21.37;55.85;99952.47;5057900;28;48171;-57
2021/08/06 06:51:50;;;;;;;;;1.00;1.00;;;;;21.35;55.30;99954.44;5057913;28;45448;-57
2021/08/06 06:54:16;;;;;;;;;1.00;1.00;;;;;21.35;55.47;99961.66;5059079;28;45330;-59
2021/08/06 06:56:41;;;;;;;;;2.00;1.00;;;;;21.35;55.40;99959.81;5058517;28;45283;-59
2021/08/06 06:59:07;;;;;;;;;1.00;1.00;;;;;21.35;55.40;99969.75;5060764;28;47242;-58
2021/08/06 07:01:32;;;;;;;;;1.00;0.00;;;;;21.34;55.72;99966.22;5091676;27;45558;-59
2021/08/06 07:03:58;;;;;;;;;1.00;1.00;;;;;21.35;55.30;99970.63;5075789;27;45405;-58
2021/08/06 07:06:24;;;;;;;;;1.00;1.00;;;;;21.37;55.68;99973.19;5063782;28;45492;-58
2021/08/06 07:08:49;;;;;;;;;1.00;0.33;;;;;21.41;55.33;99978.22;5066263;27;46978;-58
2021/08/06 07:11:15;;;;;;;;;2.00;0.00;;;;;21.42;55.41;99963.75;5068522;28;45286;-58
2021/08/06 07:13:40;;;;;;;;;2.00;1.00;;;;;21.41;55.15;99975.53;5074857;28;45437;-58
2021/08/06 07:16:06;;;;;;;;;0.33;0.33;;;;;21.45;55.63;99978.84;5050769;28;45385;-58
2021/08/06 07:18:32;;;;;;;;;1.33;0.00;;;;;21.47;55.76;99976.91;5071502;28;47897;-58
2021/08/06 07:21:00;;;;;;;;;1.00;1.00;;;;;21.47;55.16;99970.59;5068698;27;45442;-58
2021/08/06 07:23:29;;;;;;;;;0.00;0.00;;;;;21.51;55.75;99980.22;5073507;28;45488;-58
2021/08/06 07:25:56;;;;;;;;;1.33;1.33;;;;;21.52;55.15;99973.81;5068019;28;45790;-58
2021/08/06 07:28:21;;;;;;;;;1.00;1.00;;;;;21.52;55.20;99987.31;5066511;27;47595;-58
2021/08/06 07:30:47;;;;;;;;;2.00;0.33;;;;;21.53;55.22;99992.59;5080998;27;45614;-58
2021/08/06 07:33:12;;;;;;;;;0.00;0.00;;;;;21.57;55.67;99993.22;5081610;27;45415;-58
2021/08/06 07:35:38;;;;;;;;;1.00;1.00;;;;;21.61;55.41;99994.72;5057295;27;45674;-58
2021/08/06 07:38:03;;;;;;;;;0.00;0.00;;;;;21.63;55.05;99988.19;5074279;28;48032;-59
2021/08/06 07:40:29;;;;;;;;;2.00;0.33;;;;;21.68;54.96;99985.13;5080415;27;45650;-58
2021/08/06 07:42:55;;;;;;;;;0.67;0.67;;;;;21.70;54.77;99984.00;5068219;27;45501;-59
2021/08/06 07:45:24;;;;;;;;;2.00;2.00;;;;;21.74;54.67;99995.47;5053302;28;45601;-59
2021/08/06 07:47:50;;;;;;;;;1.00;1.00;;;;;21.77;54.71;99994.34;5059963;27;47186;-58
2021/08/06 07:50:17;;;;;;;;;1.67;1.00;;;;;21.79;54.43;100004.03;5082325;27;45443;-59
2021/08/06 07:52:43;;;;;;;;;0.00;0.00;;;;;21.80;54.56;100002.19;5038578;28;45458;-59
2021/08/06 07:55:12;;;;;;;;;0.67;0.67;;;;;21.79;55.01;100000.47;5044749;28;45354;-59
2021/08/06 07:57:38;;;;;;;;;0.00;0.00;;;;;21.78;54.54;100005.03;5057178;28;48230;-58
2021/08/06 08:00:05;;;;;;;;;1.00;1.00;;;;;21.81;55.24;100001.22;5053325;28;45831;-59
2021/08/06 08:02:31;;;;;;;;;1.33;1.33;;;;;21.82;54.77;100000.22;5032500;28;45377;-59
2021/08/06 08:04:57;;;;;;;;;2.00;1.00;;;;;21.86;54.74;100012.53;5063214;28;45569;-59
2021/08/06 08:07:22;;;;;;;;;0.00;0.00;;;;;21.90;55.13;100008.59;5048320;28;47418;-60
2021/08/06 08:09:48;;;;;;;;;1.33;0.00;;;;;21.91;54.54;100011.16;5057280;28;45551;-59
2021/08/06 08:12:13;;;;;;;;;0.67;0.67;;;;;21.92;55.00;100022.84;5057155;28;45247;-58
2021/08/06 08:14:39;;;;;;;;;3.00;1.67;;;;;21.93;54.36;100016.44;5075702;27;45328;-59
2021/08/06 08:17:05;;;;;;;;;1.00;1.00;;;;;21.94;54.73;100021.72;5057451;28;47676;-59
2021/08/06 08:19:31;;;;;;;;;0.00;0.00;;;;;21.94;54.83;100031.66;5058449;28;45298;-58
2021/08/06 08:21:56;;;;;;;;;0.33;0.33;;;;;21.91;54.50;100029.22;5057059;28;45370;-60
2021/08/06 08:24:22;;;;;;;;;0.00;0.00;;;;;21.86;54.73;100026.91;5076630;27;45341;-60
2021/08/06 08:26:48;;;;;;;;;0.00;0.00;;;;;21.85;54.63;100027.00;5052880;28;47337;-59
2021/08/06 08:29:13;;;;;;;;;0.00;0.00;;;;;21.88;55.06;100024.06;5056720;28;45427;-59
2021/08/06 08:31:39;;;;;;;;;0.67;0.67;;;;;21.93;55.12;100035.34;5077303;27;45459;-59
2021/08/06 08:34:05;;;;;;;;;0.00;0.00;;;;;21.96;54.69;100017.03;5075096;27;45384;-58
2021/08/06 08:36:30;;;;;;;;;0.67;0.67;;;;;22.02;54.84;100013.00;5044964;28;47021;-58
2021/08/06 08:38:56;;;;;;;;;1.00;1.00;;;;;22.07;54.45;100027.03;5058117;28;45559;-58
2021/08/06 08:41:22;;;;;;;;;0.33;0.33;;;;;22.14;54.86;100024.72;5057808;28;45765;-59
2021/08/06 08:43:48;;;;;;;;;0.00;0.00;;;;;22.19;54.12;100025.19;5050299;28;45557;-59
2021/08/06 08:46:14;;;;;;;;;0.33;0.33;;;;;22.21;54.24;100024.06;5054574;28;46217;-60
2021/08/06 08:48:40;;;;;;;;;0.00;0.00;;;;;22.24;54.19;100025.69;5011256;28;45460;-59
2021/08/06 08:51:06;;;;;;;;;0.00;0.00;;;;;22.25;53.66;100027.41;5057453;28;45467;-59
2021/08/06 08:53:32;;;;;;;;;1.00;1.00;;;;;22.25;53.96;100032.81;5071073;28;45404;-59
2021/08/06 08:55:57;;;;;;;;;0.33;0.00;;;;;22.25;53.36;100033.66;5045155;28;45410;-58
2021/08/06 08:58:23;;;;;;;;;1.33;1.00;;;;;22.27;53.98;100034.41;5080535;27;45823;-59
2021/08/06 09:00:49;;;;;;;;;0.33;0.33;;;;;22.30;53.59;100036.00;5052049;28;45721;-59
2021/08/06 09:03:36;;;;;;;;;1.00;1.00;;;;;22.30;53.54;100044.97;5065810;27;45742;-59
2021/08/06 09:06:02;;;;;;;;;1.00;1.00;;;;;22.29;53.85;100039.69;5044176;28;47010;-59
2021/08/06 09:08:27;;;;;;;;;3.00;1.00;;;;;22.28;53.69;100043.38;5070509;28;45352;-58
2021/08/06 09:10:53;;;;;;;;;1.67;1.67;;;;;22.32;53.86;100042.97;5090852;27;45314;-58
2021/08/06 09:13:23;;;;;;;;;1.00;1.00;;;;;22.37;53.90;100041.78;5057043;28;45308;-58
2021/08/06 09:15:53;;;;;;;;;3.00;1.67;;;;;22.39;53.72;100051.47;5087289;27;47043;-59
2021/08/06 09:18:28;;;;;;;;;1.00;1.00;;;;;22.40;52.78;100044.22;5083435;27;45347;-59
2021/08/06 09:20:55;;;;;;;;;1.00;1.00;;;;;22.41;53.37;100046.78;5060843;28;45439;-59
2021/08/06 09:23:42;;;;;;;;;0.00;0.00;;;;;22.45;53.26;100045.53;5059707;28;46273;-57
2021/08/06 09:26:28;;;;;;;;;0.00;0.00;;;;;22.50;53.14;100042.50;5077040;27;47234;-58
2021/08/06 09:28:59;;;;;;;;;2.00;0.00;;;;;22.57;52.77;100052.66;5050690;28;45366;-58
2021/08/06 09:31:25;;;;;;;;;0.00;0.00;;;;;22.63;52.96;100054.03;5059765;28;45700;-57
2021/08/06 09:34:07;;;;;;;;;1.00;1.00;;;;;22.70;52.84;100063.31;5078857;27;45308;-59
2021/08/06 09:36:32;;;;;;;;;0.00;0.00;;;;;22.76;52.46;100073.66;5094142;27;47768;-59
2021/08/06 09:39:12;;;;;;;;;1.00;1.00;;;;;22.79;52.47;100056.31;5092875;27;45722;-58
2021/08/06 09:41:39;;;;;;;;;1.00;1.00;;;;;22.86;52.51;100063.81;5051147;28;45820;-58
2021/08/06 09:44:20;;;;;;;;;1.00;1.00;;;;;22.92;52.47;100062.44;5045168;28;45758;-58
2021/08/06 09:46:47;;;;;;;;;1.00;1.00;;;;;22.89;51.84;100060.88;5060740;28;47401;-58
2021/08/06 09:49:14;;;;;;;;;0.00;0.00;;;;;22.86;52.14;100066.50;5046980;28;45525;-60
2021/08/06 09:51:43;;;;;;;;;0.00;0.00;;;;;22.85;51.91;100067.50;5056237;28;45708;-58
2021/08/06 09:54:24;;;;;;;;;0.00;0.00;;;;;22.83;52.68;100060.50;5055293;28;46070;-58
2021/08/06 09:57:09;;;;;;;;;0.00;0.00;;;;;22.85;52.88;100062.09;5050654;28;48091;-58
2021/08/06 09:59:36;;;;;;;;;0.67;0.67;;;;;22.89;52.78;100066.28;5059858;28;45470;-58
2021/08/06 10:02:22;;;;;;;;;2.00;1.00;;;;;22.90;52.85;100064.44;5090365;27;46299;-58
2021/08/06 10:05:09;;;;;;;;;1.00;1.00;;;;;22.90;52.43;100069.84;5061476;28;45699;-59
2021/08/06 10:07:41;;;;;;;;;0.00;0.00;;;;;22.90;52.38;100059.88;5059879;28;48727;-59
2021/08/06 10:10:11;;;;;;;;;1.00;1.00;;;;;22.92;52.09;100070.56;5088482;27;46058;-59
2021/08/06 10:12:37;;;;;;;;;0.00;0.00;;;;;22.97;52.49;100070.16;5088975;27;45354;-58
2021/08/06 10:15:03;;;;;;;;;1.00;1.00;;;;;23.03;52.59;100062.41;5058414;28;45640;-58
2021/08/06 10:17:29;;;;;;;;;1.00;0.00;;;;;23.12;52.22;100066.16;5059008;28;47867;-59
2021/08/06 10:19:55;;;;;;;;;2.00;1.67;;;;;23.24;51.84;100072.41;5058310;28;46034;-59
2021/08/06 10:22:21;;;;;;;;;0.67;0.67;;;;;23.36;51.99;100068.66;5084360;27;45483;-58
2021/08/06 10:24:49;;;;;;;;;1.00;1.00;;;;;23.44;51.84;100066.16;5056454;28;45303;-58
2021/08/06 10:27:20;;;;;;;;;0.00;0.00;;;;;23.47;51.46;100076.72;5060363;28;47672;-58
2021/08/06 10:29:56;;;;;;;;;0.67;0.00;;;;;23.49;51.33;100061.19;5062724;28;45283;-58
2021/08/06 10:32:21;;;;;;;;;1.00;0.00;;;;;23.46;51.05;100080.44;5048380;28;45659;-58
2021/08/06 10:35:16;;;;;;;;;0.00;0.00;;;;;23.43;51.26;100077.97;5049350;28;45433;-58
2021/08/06 10:37:58;;;;;;;;;2.00;0.67;;;;;23.44;50.85;100075.16;5057858;28;48294;-58
2021/08/06 10:40:33;;;;;;;;;0.00;0.00;;;;;23.46;51.13;100075.00;5047384;28;45750;-58
2021/08/06 10:43:39;;;;;;;;;1.00;0.33;;;;;23.49;50.90;100074.75;5056166;28;45481;-60
2021/08/06 10:46:05;;;;;;;;;2.67;1.00;;;;;23.51;50.40;100069.22;5054042;28;45584;-58
2021/08/06 10:48:30;;;;;;;;;1.00;0.00;;;;;23.52;50.72;100077.22;5058621;28;47273;-58
2021/08/06 10:51:14;;;;;;;;;1.00;0.33;;;;;23.58;50.70;100065.00;5055025;28;45471;-58
2021/08/06 10:53:46;;;;;;;;;0.00;0.00;;;;;23.65;50.57;100067.06;5075532;28;45594;-57
2021/08/06 10:56:18;;;;;;;;;0.67;0.67;;;;;23.71;50.51;100066.53;5092400;27;45428;-58
2021/08/06 10:59:11;;;;;;;;;3.00;3.00;;;;;23.80;50.12;100061.31;5059616;27;47152;-58
2021/08/06 11:01:39;;;;;;;;;0.00;0.00;;;;;23.78;50.14;100058.72;5055036;28;46166;-58
2021/08/06 11:04:13;;;;;;;;;1.67;1.00;;;;;23.73;50.05;100072.66;5059365;28;45345;-58
2021/08/06 11:06:52;;;;;;;;;1.00;1.00;;;;;23.71;50.13;100066.53;5057416;28;45286;-58
2021/08/06 11:09:26;;;;;;;;;1.00;1.00;;;;;23.66;49.84;100057.94;5084488;27;46854;-58
2021/08/06 11:12:01;;;;;;;;;2.00;1.00;;;;;23.60;50.21;100065.72;5058468;28;45220;-59
2021/08/06 11:14:30;;;;;;;;;1.00;1.00;;;;;23.52;49.46;100071.78;5086457;27;45368;-57
2021/08/06 11:17:14;;;;;;;;;0.67;0.67;;;;;23.45;50.15;100076.84;5092122;27;45686;-58
2021/08/06 11:19:41;;;;;;;;;3.00;3.00;;;;;23.40;50.04;100076.41;5051789;27;47042;-58
2021/08/06 11:22:16;;;;;;;;;1.67;0.67;;;;;23.35;49.92;100083.19;5092252;27;45518;-58
2021/08/06 11:24:51;;;;;;;;;0.00;0.00;;;;;23.36;50.40;100076.78;5090775;27;45562;-59
2021/08/06 11:27:18;;;;;;;;;1.00;1.00;;;;;23.46;50.43;100078.56;5074624;28;45345;-59
2021/08/06 11:30:15;;;;;;;;;1.00;1.00;;;;;23.55;50.41;100084.22;5057685;28;47166;-59
2021/08/06 11:32:57;;;;;;;;;0.67;0.67;;;;;23.60;50.05;100087.41;5053348;28;45675;-57
2021/08/06 11:35:36;;;;;;;;;0.67;0.67;;;;;23.62;50.00;100088.97;5056084;28;45440;-58
2021/08/06 11:38:16;;;;;;;;;0.67;0.67;;;;;23.66;49.85;100078.75;5058664;28;45468;-58